Time;durP1;ratioP1;P1;durP2;ratioP2;P2;SDS_P1;SDS_P2;PMS_P1;PMS_P2;Temp;Humidity;BMP_temperature;BMP_pressure;BME280_temperature;BME280_humidity;BME280_pressure;Samples;Min_cycle;Max_cycle;Signal;HPM_P1;HPM_P2
2023/11/03 00:02:08;;;;;;;2.13;1.00;;;;;;;;;;10291233;28;20054;-74
2023/11/03 00:07:13;;;;;;;2.63;0.90;;;;;;;;;;10291835;28;20054;-73
2023/11/03 00:12:16;;;;;;;1.15;0.68;;;;;;;;;;10287760;28;20142;-73
2023/11/03 00:17:21;;;;;;;4.43;1.20;;;;;;;;;;10287650;28;20073;-73
2023/11/03 00:22:24;;;;;;;1.98;0.77;;;;;;;;;;10287645;28;20146;-73
2023/11/03 00:27:27;;;;;;;2.75;0.93;;;;;;;;;;10289783;28;20079;-73
2023/11/03 00:32:33;;;;;;;2.70;0.93;;;;;;;;;;10288060;28;20039;-74
2023/11/03 00:37:37;;;;;;;2.83;1.00;;;;;;;;;;10286993;28;20054;-74
2023/11/03 00:42:40;;;;;;;4.45;1.42;;;;;;;;;;10291685;28;20818;-73
2023/11/03 00:47:45;;;;;;;3.42;0.80;;;;;;;;;;10271634;28;20054;-74
2023/11/03 00:52:48;;;;;;;2.72;1.10;;;;;;;;;;10270449;28;20058;-73
2023/11/03 00:57:52;;;;;;;3.65;1.15;;;;;;;;;;10286901;28;20054;-73
2023/11/03 01:02:57;;;;;;;2.80;0.70;;;;;;;;;;10269911;28;20952;-73
2023/11/03 01:08:02;;;;;;;1.95;0.75;;;;;;;;;;10270648;28;20082;-73
2023/11/03 01:13:10;;;;;;;;;;;;;;;;;;10276530;28;20042;-73
2023/11/03 01:18:16;;;;;;;1.83;0.80;;;;;;;;;;10273102;28;19921;-73
2023/11/03 01:23:20;;;;;;;3.25;1.10;;;;;;;;;;10286309;28;20098;-73
2023/11/03 01:28:23;;;;;;;2.13;0.63;;;;;;;;;;10287382;28;20577;-73
2023/11/03 01:33:28;;;;;;;3.40;1.00;;;;;;;;;;10268204;28;20051;-73
2023/11/03 01:38:31;;;;;;;1.95;0.80;;;;;;;;;;10285076;28;20607;-73
2023/11/03 01:43:36;;;;;;;1.70;0.70;;;;;;;;;;10284805;28;20053;-73
2023/11/03 01:48:40;;;;;;;1.90;0.80;;;;;;;;;;10278658;23;20051;-73
2023/11/03 01:53:44;;;;;;;3.67;0.90;;;;;;;;;;10252692;28;20528;-73
2023/11/03 01:58:48;;;;;;;4.28;0.82;;;;;;;;;;10248131;28;20444;-73
2023/11/03 02:03:53;;;;;;;1.58;0.70;;;;;;;;;;10227013;29;20051;-73
2023/11/03 02:08:56;;;;;;;2.40;0.70;;;;;;;;;;10249193;28;20129;-72
2023/11/03 02:14:00;;;;;;;1.75;0.60;;;;;;;;;;10221888;28;20050;-72
2023/11/03 02:19:08;;;;;;;2.08;0.63;;;;;;;;;;10243937;28;20059;-72
2023/11/03 02:24:13;;;;;;;5.38;1.08;;;;;;;;;;10235894;28;20559;-73
2023/11/03 02:29:17;;;;;;;5.28;0.90;;;;;;;;;;10238270;28;20523;-73
2023/11/03 02:34:21;;;;;;;1.67;0.90;;;;;;;;;;10243321;28;20050;-73
2023/11/03 02:39:26;;;;;;;2.03;0.80;;;;;;;;;;10230000;29;20538;-73
2023/11/03 02:44:29;;;;;;;1.65;0.70;;;;;;;;;;10242831;28;20047;-72
2023/11/03 02:49:33;;;;;;;2.38;0.68;;;;;;;;;;10226742;28;20054;-73
2023/11/03 02:54:38;;;;;;;3.35;0.90;;;;;;;;;;10242791;29;20138;-73
2023/11/03 02:59:41;;;;;;;3.00;0.90;;;;;;;;;;10245351;28;20082;-73
2023/11/03 03:04:45;;;;;;;1.52;0.55;;;;;;;;;;10238896;28;20066;-73
2023/11/03 03:09:50;;;;;;;1.65;0.88;;;;;;;;;;10229812;28;20099;-72
2023/11/03 03:14:53;;;;;;;1.17;0.57;;;;;;;;;;10242530;29;20119;-72
2023/11/03 03:19:57;;;;;;;1.63;0.50;;;;;;;;;;10225060;28;20051;-72
2023/11/03 03:25:02;;;;;;;1.25;0.80;;;;;;;;;;10224603;29;20058;-73
2023/11/03 03:30:06;;;;;;;0.70;0.43;;;;;;;;;;10216830;29;20043;-72
2023/11/03 03:35:10;;;;;;;2.50;0.60;;;;;;;;;;10225526;28;20165;-72
2023/11/03 03:40:15;;;;;;;0.50;0.40;;;;;;;;;;10249137;28;20564;-72
2023/11/03 03:45:18;;;;;;;0.90;0.50;;;;;;;;;;10251912;28;20055;-73
2023/11/03 03:50:22;;;;;;;1.70;0.70;;;;;;;;;;10249610;29;20115;-72
2023/11/03 03:55:26;;;;;;;1.05;0.40;;;;;;;;;;10250509;28;20069;-72
2023/11/03 04:00:29;;;;;;;1.15;0.40;;;;;;;;;;10231087;28;20051;-73
2023/11/03 04:05:33;;;;;;;0.73;0.43;;;;;;;;;;10248942;28;20142;-73
2023/11/03 04:10:37;;;;;;;0.82;0.35;;;;;;;;;;10248399;28;20138;-73
2023/11/03 04:15:41;;;;;;;1.45;0.55;;;;;;;;;;10248499;28;20090;-73
2023/11/03 04:20:44;;;;;;;0.45;0.43;;;;;;;;;;10248271;28;20134;-72
2023/11/03 04:25:50;;;;;;;0.60;0.30;;;;;;;;;;10248022;28;20178;-73
2023/11/03 04:30:54;;;;;;;0.88;0.47;;;;;;;;;;10230030;28;20046;-72
2023/11/03 04:35:57;;;;;;;0.85;0.40;;;;;;;;;;10247904;28;20035;-73
2023/11/03 04:41:02;;;;;;;0.77;0.43;;;;;;;;;;10246152;28;20417;-73
2023/11/03 04:46:05;;;;;;;0.43;0.38;;;;;;;;;;10248789;28;20051;-73
2023/11/03 04:51:08;;;;;;;2.65;0.60;;;;;;;;;;10247973;28;20130;-73
2023/11/03 04:56:13;;;;;;;1.77;0.40;;;;;;;;;;10250167;28;20118;-72
2023/11/03 05:01:18;;;;;;;1.70;0.57;;;;;;;;;;10243548;29;20051;-72
2023/11/03 05:06:21;;;;;;;1.15;0.47;;;;;;;;;;10249920;28;20051;-73
2023/11/03 05:11:26;;;;;;;0.70;0.40;;;;;;;;;;10251579;28;20035;-73
2023/11/03 05:16:29;;;;;;;1.45;0.57;;;;;;;;;;10246480;28;20433;-73
2023/11/03 05:21:33;;;;;;;0.73;0.60;;;;;;;;;;10248297;28;20046;-73
2023/11/03 05:26:37;;;;;;;1.00;0.50;;;;;;;;;;10247936;28;20061;-73
2023/11/03 05:31:41;;;;;;;0.90;0.32;;;;;;;;;;10244756;29;20082;-73
2023/11/03 05:36:44;;;;;;;1.73;0.50;;;;;;;;;;10234388;28;20043;-73
2023/11/03 05:41:49;;;;;;;1.30;0.55;;;;;;;;;;10248365;28;20045;-73
2023/11/03 05:46:55;;;;;;;1.73;0.70;;;;;;;;;;10247595;28;20069;-73
2023/11/03 05:51:58;;;;;;;2.05;0.80;;;;;;;;;;10245316;28;20050;-73
2023/11/03 05:57:03;;;;;;;1.20;0.57;;;;;;;;;;10245802;28;20055;-73
2023/11/03 06:02:06;;;;;;;1.75;0.43;;;;;;;;;;10246985;28;20429;-73
2023/11/03 06:07:09;;;;;;;0.77;0.32;;;;;;;;;;10246258;28;20050;-73
2023/11/03 06:12:14;;;;;;;2.60;0.65;;;;;;;;;;10247228;28;20062;-73
2023/11/03 06:17:18;;;;;;;1.10;0.40;;;;;;;;;;10245625;28;20134;-73
2023/11/03 06:22:22;;;;;;;1.67;0.65;;;;;;;;;;10245509;28;20110;-73
2023/11/03 06:27:26;;;;;;;0.85;0.40;;;;;;;;;;10245665;28;20055;-73
2023/11/03 06:32:29;;;;;;;1.13;0.50;;;;;;;;;;10244975;28;20070;-73
2023/11/03 06:37:33;;;;;;;0.93;0.40;;;;;;;;;;10244767;28;20548;-74
2023/11/03 06:42:39;;;;;;;1.48;0.50;;;;;;;;;;10243076;28;20047;-73
2023/11/03 06:47:42;;;;;;;1.42;0.70;;;;;;;;;;10231472;28;20047;-73
2023/11/03 06:52:47;;;;;;;1.55;0.40;;;;;;;;;;10226745;29;20616;-73
2023/11/03 06:57:52;;;;;;;1.80;0.52;;;;;;;;;;10244166;28;20079;-73
2023/11/03 07:02:56;;;;;;;1.13;0.50;;;;;;;;;;10227083;28;20066;-73
2023/11/03 07:08:00;;;;;;;2.65;0.70;;;;;;;;;;10242932;28;20130;-73
2023/11/03 07:13:05;;;;;;;2.92;0.98;;;;;;;;;;10252262;29;20047;-73
2023/11/03 07:18:09;;;;;;;2.87;0.70;;;;;;;;;;10252448;29;20114;-73
2023/11/03 07:23:13;;;;;;;0.60;0.50;;;;;;;;;;10253329;28;20481;-73
2023/11/03 07:28:18;;;;;;;2.78;0.73;;;;;;;;;;10252938;28;20051;-73
2023/11/03 07:33:21;;;;;;;5.47;1.10;;;;;;;;;;10252123;28;20039;-73
2023/11/03 07:38:25;;;;;;;2.63;0.95;;;;;;;;;;10251727;28;20067;-73
2023/11/03 07:43:29;;;;;;;2.80;1.20;;;;;;;;;;10250993;29;20051;-73
2023/11/03 07:48:33;;;;;;;1.30;0.73;;;;;;;;;;10252700;28;20055;-73
2023/11/03 07:53:36;;;;;;;1.20;0.55;;;;;;;;;;10254454;28;20493;-73
2023/11/03 07:58:41;;;;;;;0.90;0.65;;;;;;;;;;10250981;29;20043;-73
2023/11/03 08:03:44;;;;;;;1.67;0.60;;;;;;;;;;10249679;28;20051;-73
2023/11/03 08:08:48;;;;;;;1.52;0.70;;;;;;;;;;10249727;28;20130;-73
2023/11/03 08:13:52;;;;;;;1.70;0.90;;;;;;;;;;10250389;29;20043;-73
2023/11/03 08:18:58;;;;;;;1.52;0.70;;;;;;;;;;10250241;28;20126;-73
2023/11/03 08:24:01;;;;;;;1.40;0.50;;;;;;;;;;10249009;28;20054;-73
2023/11/03 08:29:08;;;;;;;1.40;0.60;;;;;;;;;;10232994;28;20454;-73
2023/11/03 08:34:12;;;;;;;2.38;0.85;;;;;;;;;;10249485;29;20126;-73
2023/11/03 08:39:17;;;;;;;5.82;1.05;;;;;;;;;;10231815;29;20051;-73
2023/11/03 08:44:23;;;;;;;;;;;;;;;;;;10247009;28;20146;-73
2023/11/03 08:49:30;;;;;;;4.78;1.10;;;;;;;;;;10247907;28;19929;-73
2023/11/03 08:54:33;;;;;;;3.97;1.33;;;;;;;;;;10248102;28;20070;-73
2023/11/03 08:59:38;;;;;;;4.35;1.10;;;;;;;;;;10252828;28;20134;-73
2023/11/03 09:04:41;;;;;;;3.67;1.30;;;;;;;;;;10236424;28;20047;-72
2023/11/03 09:09:45;;;;;;;4.43;1.33;;;;;;;;;;10244207;28;20102;-73
2023/11/03 09:14:49;;;;;;;6.05;1.15;;;;;;;;;;10246034;28;20165;-73
2023/11/03 09:19:53;;;;;;;1.88;0.88;;;;;;;;;;10249813;28;20081;-73
2023/11/03 09:24:56;;;;;;;2.45;0.88;;;;;;;;;;10246431;29;20047;-72
2023/11/03 09:30:01;;;;;;;2.72;0.95;;;;;;;;;;10248865;28;20560;-73
2023/11/03 09:35:05;;;;;;;4.78;1.35;;;;;;;;;;10245565;28;21296;-73
2023/11/03 09:40:10;;;;;;;8.25;1.75;;;;;;;;;;10236433;28;20501;-72
2023/11/03 09:45:19;;;;;;;3.50;1.38;;;;;;;;;;10245786;29;20152;-73
2023/11/03 09:50:24;;;;;;;2.97;0.80;;;;;;;;;;10248169;28;20258;-72
2023/11/03 09:55:30;;;;;;;3.42;0.90;;;;;;;;;;10246313;28;20051;-72
2023/11/03 10:00:37;;;;;;;3.67;1.02;;;;;;;;;;10243393;29;20421;-73
2023/11/03 10:05:40;;;;;;;2.42;1.25;;;;;;;;;;10245258;28;20047;-72
2023/11/03 10:10:45;;;;;;;1.25;0.50;;;;;;;;;;10243295;29;20055;-73
2023/11/03 10:15:50;;;;;;;5.32;0.88;;;;;;;;;;10244955;28;20058;-72
2023/11/03 10:20:56;;;;;;;2.63;0.68;;;;;;;;;;10239524;29;20446;-72
2023/11/03 10:25:59;;;;;;;3.13;1.13;;;;;;;;;;10245386;28;20137;-73
2023/11/03 10:31:06;;;;;;;2.33;0.90;;;;;;;;;;10249908;28;20465;-73
2023/11/03 10:36:10;;;;;;;5.38;0.90;;;;;;;;;;10245117;28;20066;-72
2023/11/03 10:41:16;;;;;;;3.17;0.82;;;;;;;;;;10245297;28;20054;-72
2023/11/03 10:46:34;;;;;;;4.43;1.30;;;;;;;;;;10245254;28;20047;-72
2023/11/03 10:51:41;;;;;;;1.33;0.77;;;;;;;;;;10244676;28;20047;-72
2023/11/03 10:56:46;;;;;;;2.75;0.80;;;;;;;;;;10244079;28;20118;-73
2023/11/03 11:01:59;;;;;;;6.22;1.60;;;;;;;;;;10244798;28;20055;-73
2023/11/03 11:07:06;;;;;;;4.43;0.98;;;;;;;;;;10242685;28;20059;-72
2023/11/03 11:12:10;;;;;;;5.10;1.20;;;;;;;;;;10249253;28;20473;-73
2023/11/03 11:17:35;;;;;;;4.82;1.30;;;;;;;;;;10249952;28;20058;-72
2023/11/03 11:22:41;;;;;;;5.47;1.52;;;;;;;;;;10244752;28;20059;-72
2023/11/03 11:27:49;;;;;;;4.53;1.17;;;;;;;;;;10242687;28;20058;-72
2023/11/03 11:32:55;;;;;;;4.45;1.30;;;;;;;;;;10240217;29;20059;-73
2023/11/03 11:37:59;;;;;;;4.50;1.25;;;;;;;;;;10243436;29;20051;-72
2023/11/03 11:43:03;;;;;;;5.47;1.10;;;;;;;;;;10241134;28;20047;-72
2023/11/03 11:48:17;;;;;;;4.70;1.30;;;;;;;;;;10244133;28;20130;-73
2023/11/03 11:53:20;;;;;;;4.45;1.20;;;;;;;;;;10231606;28;20047;-72
2023/11/03 11:58:25;;;;;;;6.30;1.75;;;;;;;;;;10248474;28;20043;-72
2023/11/03 12:03:30;;;;;;;5.38;1.42;;;;;;;;;;10233310;29;20146;-72
2023/11/03 12:08:34;;;;;;;5.50;1.45;;;;;;;;;;10250306;28;20513;-72
2023/11/03 12:13:37;;;;;;;3.03;1.02;;;;;;;;;;10250880;28;20051;-73
2023/11/03 12:18:42;;;;;;;4.82;1.38;;;;;;;;;;10249583;28;20058;-72
2023/11/03 12:23:45;;;;;;;3.03;1.00;;;;;;;;;;10249653;29;20047;-72
2023/11/03 12:28:49;;;;;;;3.63;1.38;;;;;;;;;;10239376;28;20047;-73
2023/11/03 12:33:59;;;;;;;3.70;1.00;;;;;;;;;;10257290;28;20055;-73
2023/11/03 12:39:06;;;;;;;6.60;2.15;;;;;;;;;;10258186;28;20068;-73
2023/11/03 12:44:09;;;;;;;5.60;1.50;;;;;;;;;;10248679;28;20417;-73
2023/11/03 12:49:14;;;;;;;4.75;1.15;;;;;;;;;;10254471;28;20050;-72
2023/11/03 12:54:18;;;;;;;5.53;1.30;;;;;;;;;;10254143;28;20051;-73
2023/11/03 12:59:22;;;;;;;5.53;1.05;;;;;;;;;;10248753;28;20048;-73
2023/11/03 13:04:27;;;;;;;8.73;1.73;;;;;;;;;;10248217;28;20069;-72
2023/11/03 13:09:30;;;;;;;5.43;1.40;;;;;;;;;;10247106;28;20047;-72
2023/11/03 13:14:34;;;;;;;3.53;1.40;;;;;;;;;;10247503;29;20731;-72
2023/11/03 13:19:38;;;;;;;4.18;1.50;;;;;;;;;;10254247;28;20461;-73
2023/11/03 13:24:44;;;;;;;6.15;1.50;;;;;;;;;;10253760;28;20130;-72
2023/11/03 13:29:47;;;;;;;4.15;1.38;;;;;;;;;;10246988;28;20050;-72
2023/11/03 13:34:52;;;;;;;6.63;1.40;;;;;;;;;;10247122;29;20532;-72
2023/11/03 13:39:55;;;;;;;9.63;1.42;;;;;;;;;;10246510;28;20074;-72
2023/11/03 14:02:14;;;;;;;5.78;1.48;;;;;;;;;;10233856;28;20138;-73
2023/11/03 14:07:19;;;;;;;6.28;1.23;;;;;;;;;;10244265;28;20532;-73
2023/11/03 14:12:33;;;;;;;3.63;0.98;;;;;;;;;;10249149;28;20371;-73
2023/11/03 14:17:41;;;;;;;2.95;1.13;;;;;;;;;;10244190;28;20416;-73
2023/11/03 14:23:01;;;;;;;4.20;1.30;;;;;;;;;;10241937;28;20055;-73
2023/11/03 14:28:17;;;;;;;2.75;1.42;;;;;;;;;;10215504;28;20050;-73
2023/11/03 14:33:29;;;;;;;3.70;1.10;;;;;;;;;;10242928;28;20325;-73
2023/11/03 14:38:35;;;;;;;5.97;1.58;;;;;;;;;;10228848;29;20079;-73
2023/11/03 14:43:39;;;;;;;5.25;1.17;;;;;;;;;;10248252;28;20058;-73
2023/11/03 14:48:43;;;;;;;4.15;1.05;;;;;;;;;;10244111;28;20055;-73
2023/11/03 14:53:47;;;;;;;2.88;1.20;;;;;;;;;;10243118;28;20043;-73
2023/11/03 14:58:52;;;;;;;3.95;1.33;;;;;;;;;;10243957;28;20051;-73
2023/11/03 15:03:55;;;;;;;3.08;1.27;;;;;;;;;;10243880;28;20071;-73
2023/11/03 15:09:00;;;;;;;4.13;1.00;;;;;;;;;;10247430;28;20051;-73
2023/11/03 15:14:03;;;;;;;3.72;1.27;;;;;;;;;;10239312;29;20055;-73
2023/11/03 15:19:07;;;;;;;3.63;1.13;;;;;;;;;;10242678;28;20062;-73
2023/11/03 15:24:12;;;;;;;3.17;1.05;;;;;;;;;;10243186;28;20465;-73
2023/11/03 15:41:55;;;;;;;1.50;0.60;;;;;;;;;;10124605;29;20049;-73
2023/11/03 15:47:44;;;;;;;;;;;;;;;;;;;;;
2023/11/03 15:53:54;;;;;;;3.45;0.93;;;;;;;;;;10129143;29;20048;-73
2023/11/03 16:11:47;;;;;;;2.75;0.70;;;;;;;;;;10157402;29;20051;-73
2023/11/03 16:17:25;;;;;;;3.13;0.70;;;;;;;;;;10209649;29;20050;-73
2023/11/03 16:28:58;;;;;;;3.70;1.00;;;;;;;;;;10204739;29;20616;-73
2023/11/03 16:34:06;;;;;;;5.47;1.73;;;;;;;;;;10202216;29;20062;-73
2023/11/03 16:39:20;;;;;;;4.55;1.70;;;;;;;;;;10196291;29;20127;-74
2023/11/03 16:44:27;;;;;;;4.05;1.50;;;;;;;;;;10211812;29;20052;-73
2023/11/03 16:49:33;;;;;;;2.53;1.20;;;;;;;;;;10200462;29;20530;-74
2023/11/03 16:54:38;;;;;;;4.70;2.10;;;;;;;;;;10194855;29;20454;-73
2023/11/03 16:59:41;;;;;;;5.60;2.20;;;;;;;;;;10209280;29;20047;-73
2023/11/03 17:04:45;;;;;;;9.98;2.88;;;;;;;;;;10196722;29;20263;-73
2023/11/03 17:09:52;;;;;;;5.63;1.98;;;;;;;;;;10213664;29;20417;-73
2023/11/03 17:14:55;;;;;;;3.97;1.77;;;;;;;;;;10215682;29;20062;-73
2023/11/03 17:20:00;;;;;;;3.05;1.88;;;;;;;;;;10196341;29;20059;-74
2023/11/03 17:25:07;;;;;;;3.53;1.88;;;;;;;;;;10212456;29;20058;-73
2023/11/03 17:30:14;;;;;;;4.10;1.80;;;;;;;;;;10215060;29;20509;-73
2023/11/03 17:35:20;;;;;;;5.82;2.17;;;;;;;;;;10207187;29;20061;-73
2023/11/03 17:40:26;;;;;;;4.20;1.77;;;;;;;;;;10210579;29;20047;-73
2023/11/03 17:45:30;;;;;;;3.10;1.73;;;;;;;;;;10210349;29;20075;-73
2023/11/03 17:50:33;;;;;;;3.83;2.03;;;;;;;;;;10209205;29;20043;-74
2023/11/03 17:55:38;;;;;;;5.60;1.73;;;;;;;;;;10207258;29;20069;-74
2023/11/03 18:00:41;;;;;;;5.65;1.85;;;;;;;;;;10209197;29;20488;-73
2023/11/03 18:05:47;;;;;;;3.13;1.70;;;;;;;;;;10210485;29;20525;-73
2023/11/03 18:10:52;;;;;;;5.63;2.03;;;;;;;;;;10208946;29;20067;-75
2023/11/03 18:15:55;;;;;;;7.35;2.58;;;;;;;;;;10205985;29;20059;-74
2023/11/03 18:20:59;;;;;;;4.63;2.83;;;;;;;;;;10207791;29;20058;-74
2023/11/03 18:26:04;;;;;;;4.32;2.10;;;;;;;;;;10203796;29;20040;-74
2023/11/03 18:31:08;;;;;;;3.33;2.03;;;;;;;;;;10250060;23;20078;-74
2023/11/03 18:36:12;;;;;;;3.55;1.60;;;;;;;;;;10244300;28;20075;-74
2023/11/03 18:41:19;;;;;;;2.28;1.30;;;;;;;;;;10243089;28;20066;-74
2023/11/03 18:46:22;;;;;;;;;;;;;;;;;;10241724;28;20058;-74
2023/11/03 18:51:25;;;;;;;4.72;1.95;;;;;;;;;;10245619;28;19926;-73
2023/11/03 19:02:20;;;;;;;3.92;1.90;;;;;;;;;;10192288;29;20052;-73
2023/11/03 19:08:00;;;;;;;4.22;2.20;;;;;;;;;;10208831;29;20042;-73
2023/11/03 19:13:15;;;;;;;5.55;2.10;;;;;;;;;;10209202;29;20044;-74
2023/11/03 19:18:24;;;;;;;3.15;2.10;;;;;;;;;;10194016;29;20635;-73
2023/11/03 19:23:27;;;;;;;3.97;1.85;;;;;;;;;;10193685;29;20052;-73
2023/11/03 19:28:32;;;;;;;2.97;1.48;;;;;;;;;;10211657;29;20075;-74
2023/11/03 19:33:37;;;;;;;3.13;1.40;;;;;;;;;;10211547;29;20058;-73
2023/11/03 19:38:40;;;;;;;4.70;1.60;;;;;;;;;;10210887;29;20130;-74
2023/11/03 19:43:44;;;;;;;4.43;2.45;;;;;;;;;;10210262;29;20062;-74
2023/11/03 19:48:48;;;;;;;4.97;2.83;;;;;;;;;;10273689;23;20054;-73
2023/11/03 19:53:52;;;;;;;4.78;2.80;;;;;;;;;;10250613;28;20066;-75
2023/11/03 19:58:55;;;;;;;3.95;2.35;;;;;;;;;;10253111;28;20051;-75
2023/11/03 20:04:02;;;;;;;4.82;2.42;;;;;;;;;;10251488;28;20134;-75
2023/11/03 20:09:05;;;;;;;4.75;2.08;;;;;;;;;;10238556;28;20047;-75
2023/11/03 20:14:08;;;;;;;5.78;2.80;;;;;;;;;;10249421;28;20066;-75
2023/11/03 20:19:14;;;;;;;5.97;3.00;;;;;;;;;;10252822;28;20085;-75
2023/11/03 20:24:17;;;;;;;3.77;2.23;;;;;;;;;;10256782;28;20058;-75
2023/11/03 20:29:20;;;;;;;2.67;1.50;;;;;;;;;;10250860;28;20055;-74
2023/11/03 20:34:25;;;;;;;2.63;1.30;;;;;;;;;;10251143;28;20067;-75
2023/11/03 20:39:28;;;;;;;3.25;1.35;;;;;;;;;;10253807;28;20050;-75
2023/11/03 20:44:33;;;;;;;1.73;0.98;;;;;;;;;;10237447;28;20047;-75
2023/11/03 20:49:38;;;;;;;1.73;1.00;;;;;;;;;;10250048;28;20057;-75
2023/11/03 20:54:41;;;;;;;1.83;1.17;;;;;;;;;;10252418;28;20503;-75
2023/11/03 20:59:44;;;;;;;2.30;1.63;;;;;;;;;;10251648;28;20148;-75
2023/11/03 21:04:49;;;;;;;5.00;1.73;;;;;;;;;;10227852;28;20138;-75
2023/11/03 21:09:52;;;;;;;2.42;1.30;;;;;;;;;;10254221;28;20051;-75
2023/11/03 21:14:56;;;;;;;4.43;1.45;;;;;;;;;;10253490;28;20059;-75
2023/11/03 21:20:00;;;;;;;3.47;1.27;;;;;;;;;;10254159;28;20557;-75
2023/11/03 21:25:07;;;;;;;1.92;1.00;;;;;;;;;;10250565;28;20043;-75
2023/11/03 21:30:11;;;;;;;3.67;1.30;;;;;;;;;;10252893;28;20047;-75
2023/11/03 21:35:16;;;;;;;2.65;1.08;;;;;;;;;;10251550;28;20075;-75
2023/11/03 21:40:20;;;;;;;3.42;1.15;;;;;;;;;;10233908;28;20081;-75
2023/11/03 21:45:23;;;;;;;2.30;1.10;;;;;;;;;;10256235;28;20129;-75
2023/11/03 21:50:27;;;;;;;1.38;0.90;;;;;;;;;;10250756;28;20067;-75
2023/11/03 21:55:31;;;;;;;1.52;0.65;;;;;;;;;;10253844;28;20055;-75
2023/11/03 22:00:34;;;;;;;2.33;1.00;;;;;;;;;;10254596;28;20075;-75
2023/11/03 22:05:40;;;;;;;2.05;1.00;;;;;;;;;;10235451;28;20058;-75
2023/11/03 22:10:43;;;;;;;4.00;0.80;;;;;;;;;;10253172;28;20102;-75
2023/11/03 22:15:49;;;;;;;2.35;1.17;;;;;;;;;;10254115;28;20045;-75
2023/11/03 22:20:53;;;;;;;2.50;1.20;;;;;;;;;;10251877;28;20416;-75
2023/11/03 22:25:57;;;;;;;2.70;0.70;;;;;;;;;;10250809;28;20150;-75
2023/11/03 22:31:07;;;;;;;3.33;0.90;;;;;;;;;;10252948;28;20138;-75
2023/11/03 22:36:12;;;;;;;1.50;0.70;;;;;;;;;;10233176;28;20082;-75
2023/11/03 22:41:16;;;;;;;2.83;1.13;;;;;;;;;;10252032;28;20065;-75
2023/11/03 22:46:19;;;;;;;3.20;1.30;;;;;;;;;;10252485;28;20054;-75
2023/11/03 22:51:24;;;;;;;2.97;1.10;;;;;;;;;;10247372;28;20059;-75
2023/11/03 22:56:27;;;;;;;2.05;1.20;;;;;;;;;;10252094;28;20420;-75
2023/11/03 23:01:34;;;;;;;3.85;1.25;;;;;;;;;;10243185;28;20556;-74
2023/11/03 23:06:41;;;;;;;1.00;0.70;;;;;;;;;;10244012;28;20062;-75
2023/11/03 23:11:45;;;;;;;2.45;1.20;;;;;;;;;;10225755;28;20069;-75
2023/11/03 23:16:48;;;;;;;2.70;1.30;;;;;;;;;;10240108;29;20051;-74
2023/11/03 23:21:53;;;;;;;1.45;0.80;;;;;;;;;;10246727;28;20047;-75
2023/11/03 23:26:56;;;;;;;1.73;0.93;;;;;;;;;;10237574;28;20057;-75
2023/11/03 23:32:00;;;;;;;1.05;0.90;;;;;;;;;;10243518;28;20051;-75
2023/11/03 23:37:05;;;;;;;1.98;1.13;;;;;;;;;;10242092;28;20441;-75
2023/11/03 23:42:08;;;;;;;2.03;1.00;;;;;;;;;;10235728;29;20039;-75
2023/11/03 23:47:11;;;;;;;1.58;0.80;;;;;;;;;;10243209;28;20423;-75
2023/11/03 23:52:16;;;;;;;1.55;1.00;;;;;;;;;;10246258;28;20047;-75
2023/11/03 23:57:19;;;;;;;3.40;1.00;;;;;;;;;;10249879;29;20131;-75
